createdAt,value
2023-04-29T00:01:34.253Z,99683.38
2023-04-29T00:04:02.083Z,99665.22
2023-04-29T00:06:29.584Z,99665.81
2023-04-29T00:08:56.993Z,99666.16
2023-04-29T00:11:24.618Z,99666.16
2023-04-29T00:13:51.978Z,99663.13
2023-04-29T00:16:19.381Z,99670.28
2023-04-29T00:18:47.252Z,99666.13
2023-04-29T00:21:14.673Z,99663.69
2023-04-29T00:23:42.013Z,99653.62
2023-04-29T00:26:09.684Z,99667.75
2023-04-29T00:28:37.195Z,99661.69
2023-04-29T00:31:04.667Z,99654.91
2023-04-29T00:33:32.398Z,99654.28
2023-04-29T00:35:59.753Z,99652.03
2023-04-29T00:38:27.142Z,99653.28
2023-04-29T00:40:55.651Z,99651.03
2023-04-29T00:43:23.048Z,99663.00
2023-04-29T00:45:51.139Z,99659.06
2023-04-29T00:48:18.785Z,99659.47
2023-04-29T00:50:46.247Z,99664.00
2023-04-29T00:53:13.640Z,99665.25
2023-04-29T00:55:42.093Z,99662.78
2023-04-29T00:58:10.611Z,99661.53
2023-04-29T01:00:38.103Z,99654.75
2023-04-29T01:03:06.171Z,99655.75
2023-04-29T01:05:33.783Z,99658.41
2023-04-29T01:08:38.847Z,99658.22
2023-04-29T01:11:10.932Z,99656.38
2023-04-29T01:13:51.189Z,99660.50
2023-04-29T01:16:21.677Z,99655.16
2023-04-29T01:18:50.629Z,99646.88
2023-04-29T01:21:19.207Z,99647.09
2023-04-29T01:23:46.829Z,99643.19
2023-04-29T01:26:14.786Z,99654.12
2023-04-29T01:29:21.012Z,99652.25
2023-04-29T01:31:51.729Z,99660.47
2023-04-29T01:34:23.566Z,99652.88
2023-04-29T01:37:14.160Z,99653.47
2023-04-29T01:39:48.420Z,99641.06
2023-04-29T01:42:51.862Z,99645.56
2023-04-29T01:45:21.589Z,99650.16
2023-04-29T01:47:49.467Z,99635.31
2023-04-29T01:50:17.062Z,99633.69
2023-04-29T01:52:44.537Z,99638.00
2023-04-29T01:55:12.453Z,99639.06
2023-04-29T01:57:40.354Z,99640.91
2023-04-29T02:00:09.063Z,99633.91
2023-04-29T02:02:41.007Z,99639.88
2023-04-29T02:05:10.081Z,99642.34
2023-04-29T02:07:40.207Z,99644.97
2023-04-29T02:10:07.858Z,99648.72
2023-04-29T02:12:36.274Z,99642.19
2023-04-29T02:15:03.786Z,99648.06
2023-04-29T02:17:31.282Z,99650.34
2023-04-29T02:19:58.973Z,99641.31
2023-04-29T02:22:26.382Z,99647.19
2023-04-29T02:24:56.159Z,99641.38
2023-04-29T02:27:23.914Z,99643.59
2023-04-29T02:29:51.765Z,99641.03
2023-04-29T02:32:20.730Z,99640.25
2023-04-29T02:34:49.180Z,99639.41
2023-04-29T02:37:16.594Z,99633.34
2023-04-29T02:39:43.966Z,99625.31
2023-04-29T02:42:13.747Z,99623.22
2023-04-29T02:44:42.555Z,99629.34
2023-04-29T02:47:09.971Z,99625.31
2023-04-29T02:49:37.683Z,99628.09
2023-04-29T02:52:05.108Z,99617.94
2023-04-29T02:54:33.066Z,99621.38
2023-04-29T02:57:00.759Z,99616.72
2023-04-29T02:59:28.256Z,99621.41
2023-04-29T03:01:55.662Z,99614.50
2023-04-29T03:04:24.003Z,99628.22
2023-04-29T03:06:51.456Z,99626.16
2023-04-29T03:09:18.818Z,99622.22
2023-04-29T03:11:46.725Z,99623.47
2023-04-29T03:14:14.178Z,99629.84
2023-04-29T03:16:41.668Z,99626.97
2023-04-29T03:19:10.488Z,99619.25
2023-04-29T03:21:37.885Z,99622.78
2023-04-29T03:24:05.776Z,99621.97
2023-04-29T03:26:33.620Z,99626.66
2023-04-29T03:29:01.028Z,99622.59
2023-04-29T03:31:28.717Z,99630.63
2023-04-29T03:33:56.382Z,99624.62
2023-04-29T03:36:23.866Z,99624.44
2023-04-29T03:38:51.307Z,99623.19
2023-04-29T03:41:19.031Z,99624.03
2023-04-29T03:43:47.822Z,99630.78
2023-04-29T03:46:15.244Z,99638.22
2023-04-29T03:48:42.969Z,99651.59
2023-04-29T03:51:10.880Z,99639.84
2023-04-29T03:53:38.584Z,99649.09
2023-04-29T03:56:07.006Z,99649.16
2023-04-29T03:58:34.398Z,99650.41
2023-04-29T04:01:01.809Z,99656.38
2023-04-29T04:03:32.726Z,99663.69
2023-04-29T04:06:00.221Z,99655.66
2023-04-29T04:08:27.675Z,99648.34
2023-04-29T04:10:55.705Z,99659.03
2023-04-29T04:13:23.724Z,99647.72
2023-04-29T04:15:52.132Z,99650.41
2023-04-29T04:18:19.998Z,99653.62
2023-04-29T04:20:47.635Z,99647.72
2023-04-29T04:23:15.094Z,99655.25
2023-04-29T04:25:49.803Z,99661.88
2023-04-29T04:28:17.544Z,99655.94
2023-04-29T04:30:46.382Z,99644.22
2023-04-29T04:33:13.836Z,99659.03
2023-04-29T04:35:41.320Z,99660.22
2023-04-29T04:38:09.335Z,99670.09
2023-04-29T04:40:37.177Z,99667.22
2023-04-29T04:43:07.299Z,99656.16
2023-04-29T04:45:36.717Z,99664.75
2023-04-29T04:48:04.590Z,99667.88
2023-04-29T04:50:33.251Z,99659.47
2023-04-29T04:53:01.135Z,99655.31
2023-04-29T04:55:29.605Z,99652.88
2023-04-29T04:57:57.265Z,99646.28
2023-04-29T05:00:24.959Z,99639.06
2023-04-29T05:02:52.523Z,99642.19
2023-04-29T05:05:20.141Z,99634.94
2023-04-29T05:07:47.797Z,99640.94
2023-04-29T05:10:15.517Z,99638.03
2023-04-29T05:12:43.618Z,99632.50
2023-04-29T05:15:11.501Z,99641.25
2023-04-29T05:17:39.308Z,99637.19
2023-04-29T05:20:07.588Z,99639.69
2023-04-29T05:22:35.435Z,99643.63
2023-04-29T05:25:03.722Z,99648.53
2023-04-29T05:27:31.285Z,99657.16
2023-04-29T05:29:59.220Z,99648.34
2023-04-29T05:32:26.691Z,99652.06
2023-04-29T05:34:54.103Z,99661.53
2023-04-29T05:37:21.733Z,99659.47
2023-04-29T05:39:51.718Z,99653.28
2023-04-29T05:42:19.250Z,99655.16
2023-04-29T05:44:47.346Z,99662.12
2023-04-29T05:47:14.996Z,99658.03
2023-04-29T05:49:43.158Z,99659.06
2023-04-29T05:52:10.858Z,99659.28
2023-04-29T05:54:38.366Z,99657.19
2023-04-29T05:57:06.954Z,99666.03
2023-04-29T05:59:34.733Z,99665.19
2023-04-29T06:02:03.444Z,99667.75
2023-04-29T06:04:31.370Z,99669.59
2023-04-29T06:06:58.970Z,99674.34
2023-04-29T06:09:28.220Z,99663.56
2023-04-29T06:11:56.413Z,99665.47
2023-04-29T06:14:23.896Z,99661.53
2023-04-29T06:16:51.405Z,99658.53
2023-04-29T06:19:19.294Z,99655.69
2023-04-29T06:21:46.698Z,99659.69
2023-04-29T06:24:14.068Z,99656.56
2023-04-29T06:26:41.751Z,99656.38
2023-04-29T06:29:09.208Z,99654.38
2023-04-29T06:31:36.931Z,99660.94
2023-04-29T06:34:04.883Z,99663.66
2023-04-29T06:36:33.163Z,99666.28
2023-04-29T06:39:01.825Z,99664.84
2023-04-29T06:41:29.635Z,99673.47
2023-04-29T06:43:59.214Z,99662.34
2023-04-29T06:46:29.205Z,99671.41
2023-04-29T06:48:57.539Z,99667.28
2023-04-29T06:51:25.042Z,99667.88
2023-04-29T06:53:52.407Z,99663.06
2023-04-29T06:56:21.839Z,99666.25
2023-04-29T06:58:49.217Z,99665.34
2023-04-29T07:01:17.048Z,99668.81
2023-04-29T07:03:45.354Z,99668.31
2023-04-29T07:06:12.872Z,99662.03
2023-04-29T07:08:40.266Z,99665.56
2023-04-29T07:11:08.480Z,99660.56
2023-04-29T07:13:35.837Z,99663.94
2023-04-29T07:16:03.217Z,99666.84
2023-04-29T07:18:31.086Z,99671.00
2023-04-29T07:21:02.099Z,99669.75
2023-04-29T07:23:29.659Z,99662.81
2023-04-29T07:25:57.403Z,99663.75
2023-04-29T07:28:24.837Z,99665.97
2023-04-29T07:30:53.799Z,99658.97
2023-04-29T07:33:21.466Z,99660.19
2023-04-29T07:35:48.834Z,99659.03
2023-04-29T07:38:16.202Z,99653.50
2023-04-29T07:40:43.829Z,99641.81
2023-04-29T07:43:11.546Z,99636.38
2023-04-29T07:45:39.960Z,99626.34
2023-04-29T07:48:07.616Z,99631.22
2023-04-29T07:50:36.605Z,99629.75
2023-04-29T07:53:04.280Z,99629.81
2023-04-29T07:55:31.931Z,99606.09
2023-04-29T07:58:00.651Z,99613.59
2023-04-29T08:00:28.349Z,99609.66
2023-04-29T08:02:56.391Z,99622.00
2023-04-29T08:05:24.544Z,99623.41
2023-04-29T08:07:52.646Z,99645.97
2023-04-29T08:10:22.391Z,99642.41
2023-04-29T08:12:49.900Z,99650.09
2023-04-29T08:15:18.582Z,99640.09
2023-04-29T08:17:46.298Z,99647.31
2023-04-29T08:20:13.760Z,99647.69
2023-04-29T08:22:41.253Z,99650.84
2023-04-29T08:25:09.141Z,99662.78
2023-04-29T08:27:36.787Z,99655.84
2023-04-29T08:30:04.660Z,99655.31
2023-04-29T08:32:32.677Z,99648.00
2023-04-29T08:35:00.081Z,99641.19
2023-04-29T08:37:27.739Z,99635.56
2023-04-29T08:39:55.368Z,99638.47
2023-04-29T08:42:37.889Z,99620.25
2023-04-29T08:45:06.218Z,99617.34
2023-04-29T08:47:33.940Z,99608.84
2023-04-29T08:50:04.207Z,99605.72
2023-04-29T08:52:32.411Z,99621.34
2023-04-29T08:55:02.468Z,99622.56
2023-04-29T08:57:31.219Z,99634.22
2023-04-29T09:00:00.150Z,99636.25
2023-04-29T09:02:27.658Z,99647.81
2023-04-29T09:05:04.971Z,99633.25
2023-04-29T09:07:33.112Z,99644.00
2023-04-29T09:10:00.489Z,99649.91
2023-04-29T09:12:28.421Z,99648.66
2023-04-29T09:14:59.576Z,99652.84
2023-04-29T09:17:46.793Z,99649.38
2023-04-29T09:20:20.130Z,99647.06
2023-04-29T09:23:07.704Z,99663.03
2023-04-29T09:25:36.419Z,99658.78
2023-04-29T09:28:15.072Z,99660.28
2023-04-29T09:30:47.175Z,99660.66
2023-04-29T09:33:16.806Z,99656.06
2023-04-29T09:35:44.444Z,99660.22
2023-04-29T09:38:15.656Z,99653.81
2023-04-29T09:40:58.418Z,99661.00
2023-04-29T09:43:27.519Z,99656.03
2023-04-29T09:45:55.051Z,99660.34
2023-04-29T09:48:22.981Z,99652.97
2023-04-29T09:51:04.157Z,99655.31
2023-04-29T09:53:31.917Z,99650.84
2023-04-29T09:56:01.365Z,99634.25
2023-04-29T09:58:31.004Z,99636.19
2023-04-29T10:01:01.670Z,99642.59
2023-04-29T10:03:34.408Z,99641.47
2023-04-29T10:06:02.747Z,99643.34
2023-04-29T10:08:30.952Z,99650.31
2023-04-29T10:11:00.578Z,99640.38
2023-04-29T10:13:28.434Z,99637.69
2023-04-29T10:16:15.354Z,99639.88
2023-04-29T10:18:45.144Z,99637.41
2023-04-29T10:21:12.800Z,99633.53
2023-04-29T10:23:40.223Z,99637.16
2023-04-29T10:26:07.613Z,99631.25
2023-04-29T10:28:35.249Z,99630.75
2023-04-29T10:31:06.767Z,99629.03
2023-04-29T10:33:34.285Z,99628.28
2023-04-29T10:36:02.219Z,99616.09
2023-04-29T10:38:37.263Z,99622.53
2023-04-29T10:41:16.034Z,99614.00
2023-04-29T10:43:43.407Z,99605.31
2023-04-29T10:46:17.427Z,99614.03
2023-04-29T10:48:45.644Z,99599.91
2023-04-29T10:51:14.381Z,99611.66
2023-04-29T10:54:07.692Z,99604.19
2023-04-29T10:56:37.948Z,99596.69
2023-04-29T10:59:05.530Z,99587.25
2023-04-29T11:01:46.701Z,99601.91
2023-04-29T11:04:14.564Z,99593.56
2023-04-29T11:06:44.814Z,99592.47
2023-04-29T11:09:14.572Z,99595.38
2023-04-29T11:12:03.485Z,99587.75
2023-04-29T11:14:31.882Z,99577.31
2023-04-29T11:17:01.532Z,99576.97
2023-04-29T11:19:36.723Z,99577.00
2023-04-29T11:22:28.091Z,99572.31
2023-04-29T11:25:00.624Z,99558.59
2023-04-29T11:27:31.872Z,99558.75
2023-04-29T11:29:59.563Z,99562.34
2023-04-29T11:32:33.940Z,99559.75
2023-04-29T11:35:12.398Z,99553.91
2023-04-29T11:37:40.279Z,99546.50
2023-04-29T11:40:08.776Z,99547.47
2023-04-29T11:42:36.930Z,99561.94
2023-04-29T11:45:04.515Z,99558.00
2023-04-29T11:47:32.264Z,99546.25
2023-04-29T11:50:09.530Z,99557.13
2023-04-29T11:52:38.651Z,99555.25
2023-04-29T11:55:06.444Z,99552.37
2023-04-29T11:57:33.815Z,99551.87
2023-04-29T12:00:01.462Z,99553.88
2023-04-29T12:02:32.292Z,99555.84
2023-04-29T12:05:03.912Z,99555.53
2023-04-29T12:07:31.425Z,99554.75
2023-04-29T12:09:59.683Z,99553.56
2023-04-29T12:12:31.727Z,99555.00
2023-04-29T12:14:59.153Z,99546.59
2023-04-29T12:17:26.773Z,99544.00
2023-04-29T12:19:54.150Z,99563.16
2023-04-29T12:22:21.534Z,99548.81
2023-04-29T12:24:50.875Z,99546.16
2023-04-29T12:27:18.410Z,99547.81
2023-04-29T12:29:46.635Z,99548.50
2023-04-29T12:32:17.216Z,99537.75
2023-04-29T12:34:45.730Z,99537.00
2023-04-29T12:37:13.562Z,99540.34
2023-04-29T12:39:41.248Z,99538.22
2023-04-29T12:42:12.020Z,99543.97
2023-04-29T12:44:40.734Z,99543.06
2023-04-29T12:47:09.992Z,99540.59
2023-04-29T12:49:38.547Z,99540.91
2023-04-29T12:52:09.555Z,99541.88
2023-04-29T12:54:38.128Z,99539.59
2023-04-29T12:57:05.922Z,99540.78
2023-04-29T12:59:33.306Z,99527.53
2023-04-29T13:02:01.661Z,99524.59
2023-04-29T13:04:29.220Z,99525.84
2023-04-29T13:07:04.362Z,99518.78
2023-04-29T13:09:32.197Z,99513.25
2023-04-29T13:11:59.772Z,99505.97
2023-04-29T13:14:27.661Z,99508.53
2023-04-29T13:16:55.346Z,99514.44
2023-04-29T13:21:53.078Z,99508.00
2023-04-29T13:24:21.109Z,99505.63
2023-04-29T13:26:50.313Z,99497.50
2023-04-29T13:29:19.700Z,99497.87
2023-04-29T13:31:47.760Z,99489.44
2023-04-29T13:34:15.191Z,99483.31
2023-04-29T13:36:42.607Z,99480.41
2023-04-29T13:39:10.516Z,99484.28
2023-04-29T13:41:41.277Z,99474.81
2023-04-29T13:44:23.633Z,99479.53
2023-04-29T13:46:52.480Z,99472.06
2023-04-29T13:49:42.276Z,99471.41
2023-04-29T13:52:47.491Z,99469.13
2023-04-29T13:55:30.096Z,99469.16
2023-04-29T14:00:31.902Z,99476.97
2023-04-29T14:03:02.460Z,99469.41
2023-04-29T14:05:30.057Z,99479.06
2023-04-29T14:07:57.527Z,99471.03
2023-04-29T14:10:25.135Z,99473.50
2023-04-29T14:12:52.989Z,99466.87
2023-04-29T14:15:20.749Z,99462.78
2023-04-29T14:17:50.271Z,99459.94
2023-04-29T14:20:17.718Z,99450.56
2023-04-29T14:22:45.352Z,99446.31
2023-04-29T14:25:13.533Z,99456.00
2023-04-29T14:27:40.911Z,99456.03
2023-04-29T14:30:09.061Z,99459.00
2023-04-29T14:32:36.760Z,99461.63
2023-04-29T14:35:04.377Z,99465.13
2023-04-29T14:37:31.794Z,99460.41
2023-04-29T14:39:59.467Z,99464.00
2023-04-29T14:42:27.277Z,99451.87
2023-04-29T14:44:54.885Z,99453.84
2023-04-29T14:47:22.788Z,99453.31
2023-04-29T14:49:50.182Z,99456.44
2023-04-29T14:52:17.554Z,99452.78
2023-04-29T14:54:45.149Z,99457.50
2023-04-29T14:57:12.921Z,99452.94
2023-04-29T14:59:40.332Z,99458.56
2023-04-29T15:02:08.221Z,99458.72
2023-04-29T15:04:35.702Z,99464.50
2023-04-29T15:07:03.426Z,99462.19
2023-04-29T15:09:32.121Z,99455.50
2023-04-29T15:11:59.476Z,99453.28
2023-04-29T15:14:26.854Z,99444.25
2023-04-29T15:16:54.479Z,99453.31
2023-04-29T15:19:21.858Z,99450.75
2023-04-29T15:21:49.197Z,99450.50
2023-04-29T15:24:17.396Z,99451.53
2023-04-29T15:26:44.847Z,99470.34
2023-04-29T15:29:12.181Z,99455.75
2023-04-29T15:31:39.827Z,99455.09
2023-04-29T15:34:07.567Z,99449.94
2023-04-29T15:36:34.967Z,99460.31
2023-04-29T15:39:02.581Z,99442.88
2023-04-29T15:41:29.922Z,99442.81
2023-04-29T15:43:57.262Z,99433.97
2023-04-29T15:46:24.904Z,99465.09
2023-04-29T15:48:52.287Z,99460.81
2023-04-29T15:51:19.685Z,99452.69
2023-04-29T15:53:47.969Z,99457.50
2023-04-29T15:56:15.333Z,99449.56
2023-04-29T15:58:42.770Z,99448.50
2023-04-29T16:01:10.426Z,99450.81
2023-04-29T16:03:38.223Z,99452.09
2023-04-29T16:06:05.953Z,99439.63
2023-04-29T16:08:33.343Z,99450.22
2023-04-29T16:11:01.197Z,99447.06
2023-04-29T16:13:28.669Z,99446.16
2023-04-29T16:15:56.578Z,99444.50
2023-04-29T16:18:24.235Z,99451.53
2023-04-29T16:20:52.172Z,99453.59
2023-04-29T16:23:19.502Z,99457.84
2023-04-29T16:25:47.133Z,99452.25
2023-04-29T16:28:14.516Z,99457.81
2023-04-29T16:30:41.867Z,99454.63
2023-04-29T16:33:09.538Z,99458.00
2023-04-29T16:35:37.199Z,99454.72
2023-04-29T16:38:04.556Z,99456.28
2023-04-29T16:40:32.200Z,99451.31
2023-04-29T16:42:59.538Z,99450.53
2023-04-29T16:45:26.862Z,99445.81
2023-04-29T16:47:54.777Z,99443.22
2023-04-29T16:50:22.224Z,99452.41
2023-04-29T16:52:49.623Z,99454.31
2023-04-29T16:55:17.300Z,99444.94
2023-04-29T16:57:44.631Z,99448.50
2023-04-29T17:00:12.270Z,99445.56
2023-04-29T17:02:45.085Z,99452.84
2023-04-29T17:05:12.504Z,99450.97
2023-04-29T17:07:40.128Z,99462.03
2023-04-29T17:10:08.246Z,99467.22
2023-04-29T17:12:35.668Z,99465.84
2023-04-29T17:15:04.046Z,99467.91
2023-04-29T17:17:31.705Z,99468.66
2023-04-29T17:19:59.142Z,99464.09
2023-04-29T17:22:26.878Z,99467.63
2023-04-29T17:24:54.216Z,99471.81
2023-04-29T17:27:21.592Z,99482.53
2023-04-29T17:29:49.406Z,99476.34
2023-04-29T17:32:17.589Z,99479.28
2023-04-29T17:34:44.946Z,99474.66
2023-04-29T17:37:12.558Z,99480.00
2023-04-29T17:39:39.962Z,99482.06
2023-04-29T17:42:07.482Z,99484.41
2023-04-29T17:44:37.427Z,99492.16
2023-04-29T17:47:05.466Z,99500.03
2023-04-29T17:49:32.815Z,99498.63
2023-04-29T17:52:02.994Z,99497.50
2023-04-29T17:54:30.510Z,99506.09
2023-04-29T17:56:58.934Z,99505.28
2023-04-29T17:59:26.574Z,99503.53
2023-04-29T18:01:53.919Z,99514.31
2023-04-29T18:04:21.535Z,99505.28
2023-04-29T18:06:49.016Z,99512.69
2023-04-29T18:09:16.578Z,99505.50
2023-04-29T18:11:44.735Z,99512.31
2023-04-29T18:14:12.264Z,99510.31
2023-04-29T18:16:39.687Z,99514.53
2023-04-29T18:19:07.466Z,99516.62
2023-04-29T18:21:34.834Z,99527.03
2023-04-29T18:24:02.245Z,99522.81
2023-04-29T18:26:29.956Z,99525.84
2023-04-29T18:28:57.287Z,99524.19
2023-04-29T18:31:26.469Z,99534.13
2023-04-29T18:33:54.396Z,99541.13
2023-04-29T18:36:23.632Z,99544.06
2023-04-29T18:38:50.993Z,99554.94
2023-04-29T18:41:18.657Z,99550.16
2023-04-29T18:43:46.043Z,99556.12
2023-04-29T18:46:13.430Z,99557.03
2023-04-29T18:48:41.416Z,99564.59
2023-04-29T18:51:08.823Z,99562.19
2023-04-29T18:53:36.240Z,99572.78
2023-04-29T18:56:03.990Z,99574.91
2023-04-29T18:58:31.446Z,99568.69
2023-04-29T19:00:59.980Z,99573.28
2023-04-29T19:03:27.987Z,99574.78
2023-04-29T19:05:55.420Z,99576.47
2023-04-29T19:08:22.772Z,99573.06
2023-04-29T19:10:50.699Z,99583.78
2023-04-29T19:13:18.091Z,99583.53
2023-04-29T19:15:45.785Z,99584.97
2023-04-29T19:18:13.386Z,99584.66
2023-04-29T19:20:40.892Z,99588.25
2023-04-29T19:23:08.527Z,99578.88
2023-04-29T19:25:36.245Z,99572.59
2023-04-29T19:28:03.919Z,99586.72
2023-04-29T19:30:31.317Z,99585.84
2023-04-29T19:32:58.979Z,99585.12
2023-04-29T19:35:26.526Z,99585.69
2023-04-29T19:37:54.819Z,99586.75
2023-04-29T19:40:22.517Z,99586.28
2023-04-29T19:42:49.841Z,99585.66
2023-04-29T19:45:17.184Z,99585.19
2023-04-29T19:47:44.850Z,99591.78
2023-04-29T19:50:12.211Z,99589.50
2023-04-29T19:52:39.634Z,99608.41
2023-04-29T19:55:08.930Z,99601.72
2023-04-29T19:57:36.477Z,99596.31
2023-04-29T20:00:04.667Z,99594.78
2023-04-29T20:02:33.980Z,99594.16
2023-04-29T20:05:01.784Z,99598.75
2023-04-29T20:07:29.121Z,99599.53
2023-04-29T20:09:56.817Z,99596.31
2023-04-29T20:12:24.568Z,99602.38
2023-04-29T20:14:51.918Z,99610.53
2023-04-29T20:17:19.309Z,99602.06
2023-04-29T20:19:46.980Z,99600.13
2023-04-29T20:22:14.398Z,99610.59
2023-04-29T20:24:41.747Z,99605.34
2023-04-29T20:27:09.357Z,99600.13
2023-04-29T20:29:37.124Z,99597.97
2023-04-29T20:32:06.000Z,99598.31
2023-04-29T20:34:33.740Z,99594.06
2023-04-29T20:37:01.437Z,99597.34
2023-04-29T20:39:28.947Z,99591.34
2023-04-29T20:41:56.980Z,99596.34
2023-04-29T20:44:24.530Z,99599.03
2023-04-29T20:46:53.077Z,99598.16
2023-04-29T20:49:20.818Z,99599.59
2023-04-29T20:51:49.343Z,99601.75
2023-04-29T20:54:16.904Z,99599.69
2023-04-29T20:56:44.545Z,99605.91
2023-04-29T20:59:11.889Z,99607.16
2023-04-29T21:01:39.312Z,99611.59
2023-04-29T21:04:07.051Z,99608.75
2023-04-29T21:06:34.495Z,99618.63
2023-04-29T21:09:02.284Z,99622.84
2023-04-29T21:11:29.916Z,99621.69
2023-04-29T21:13:57.469Z,99630.78
2023-04-29T21:16:24.906Z,99624.91
2023-04-29T21:18:52.549Z,99628.28
2023-04-29T21:21:19.922Z,99620.16
2023-04-29T21:23:47.296Z,99623.56
2023-04-29T21:26:15.119Z,99618.63
2023-04-29T21:28:42.525Z,99625.84
2023-04-29T21:31:15.309Z,99624.53
2023-04-29T21:33:43.762Z,99626.34
2023-04-29T21:36:11.148Z,99629.38
2023-04-29T21:38:38.632Z,99627.50
2023-04-29T21:41:06.380Z,99632.00
2023-04-29T21:43:33.848Z,99625.88
2023-04-29T21:46:01.298Z,99626.75
2023-04-29T21:48:28.934Z,99633.84
2023-04-29T21:50:56.334Z,99634.75
2023-04-29T21:53:23.746Z,99641.81
2023-04-29T21:55:51.409Z,99640.56
2023-04-29T21:58:20.949Z,99633.59
2023-04-29T22:00:58.346Z,99637.19
2023-04-29T22:03:26.296Z,99629.09
2023-04-29T22:05:53.735Z,99629.81
2023-04-29T22:08:21.125Z,99632.53
2023-04-29T22:10:48.805Z,99627.59
2023-04-29T22:13:16.253Z,99624.88
2023-04-29T22:15:43.611Z,99624.38
2023-04-29T22:18:11.210Z,99624.16
2023-04-29T22:20:38.575Z,99628.13
2023-04-29T22:23:05.910Z,99628.72
2023-04-29T22:25:33.571Z,99620.09
2023-04-29T22:28:01.311Z,99625.13
2023-04-29T22:30:28.630Z,99628.78
2023-04-29T22:32:56.831Z,99627.94
2023-04-29T22:35:24.219Z,99632.12
2023-04-29T22:37:51.634Z,99625.22
2023-04-29T22:40:19.360Z,99629.00
2023-04-29T22:42:46.907Z,99632.16
2023-04-29T22:45:14.222Z,99628.66
2023-04-29T22:47:43.268Z,99636.59
2023-04-29T22:50:10.951Z,99640.56
2023-04-29T22:52:38.314Z,99630.94
2023-04-29T22:55:06.238Z,99634.41
2023-04-29T22:57:33.586Z,99635.41
2023-04-29T23:00:01.115Z,99639.12
2023-04-29T23:02:29.515Z,99634.69
2023-04-29T23:04:57.694Z,99638.19
2023-04-29T23:07:25.510Z,99635.03
2023-04-29T23:09:53.355Z,99639.81
2023-04-29T23:12:21.108Z,99638.72
2023-04-29T23:14:48.650Z,99647.09
2023-04-29T23:17:16.249Z,99634.25
2023-04-29T23:19:43.618Z,99645.91
2023-04-29T23:22:11.004Z,99647.38
2023-04-29T23:24:38.591Z,99649.25
2023-04-29T23:27:06.111Z,99636.03
2023-04-29T23:29:36.505Z,99641.66
2023-04-29T23:32:04.195Z,99642.16
2023-04-29T23:34:31.573Z,99632.94
2023-04-29T23:37:01.250Z,99643.53
2023-04-29T23:39:28.917Z,99634.53
2023-04-29T23:41:56.589Z,99637.03
2023-04-29T23:44:25.170Z,99641.38
2023-04-29T23:46:53.659Z,99632.72
2023-04-29T23:49:21.028Z,99639.41
2023-04-29T23:51:48.389Z,99631.72
2023-04-29T23:54:16.281Z,99630.28
2023-04-29T23:56:43.596Z,99629.00
2023-04-29T23:59:10.974Z,99627.22
